Time;durP1;ratioP1;P1;durP2;ratioP2;P2;SDS_P1;SDS_P2;PMS_P1;PMS_P2;Temp;Humidity;BMP_temperature;BMP_pressure;BME280_temperature;BME280_humidity;BME280_pressure;Samples;Min_cycle;Max_cycle;Signal;HPM_P1;HPM_P2
2020/12/04 00:00:59;;;;;;;40.10;18.00;;;;;;;-0.78;81.37;99119.97;5094957;28;20050;-67
2020/12/04 00:03:24;;;;;;;47.33;18.63;;;;;;;-0.72;81.13;99129.13;5112629;28;20035;-67
2020/12/04 00:05:50;;;;;;;36.83;16.10;;;;;;;-0.69;81.33;99124.44;5112331;28;20046;-67
2020/12/04 00:08:15;;;;;;;43.37;20.13;;;;;;;-0.71;81.17;99120.31;5111638;28;20028;-67
2020/12/04 00:10:40;;;;;;;40.87;18.07;;;;;;;-0.71;80.87;99128.16;5112676;28;20100;-67
2020/12/04 00:13:05;;;;;;;47.13;18.53;;;;;;;-0.72;80.82;99121.28;5094712;28;20047;-67
2020/12/04 00:15:31;;;;;;;39.93;18.83;;;;;;;-0.70;80.89;99127.22;5112338;28;20084;-67
2020/12/04 00:17:56;;;;;;;45.55;18.40;;;;;;;-0.65;80.56;99125.84;5111462;28;20043;-67
2020/12/04 00:20:22;;;;;;;37.73;18.37;;;;;;;-0.67;80.72;99119.09;5112277;28;20039;-67
2020/12/04 00:22:47;;;;;;;41.17;17.07;;;;;;;-0.66;80.21;99124.22;5112336;28;20043;-67
2020/12/04 00:25:12;;;;;;;37.80;16.00;;;;;;;-0.67;80.14;99122.53;5111386;28;20042;-67
2020/12/04 00:27:38;;;;;;;34.60;17.37;;;;;;;-0.67;80.41;99126.94;5094186;28;20032;-67
2020/12/04 00:30:03;;;;;;;35.93;16.77;;;;;;;-0.67;80.70;99127.78;5112291;28;20107;-67
2020/12/04 00:32:28;;;;;;;37.03;16.10;;;;;;;-0.67;80.73;99125.16;5111141;28;20502;-67
2020/12/04 00:34:54;;;;;;;38.20;18.23;;;;;;;-0.62;80.00;99129.19;5112196;28;20449;-67
2020/12/04 00:37:19;;;;;;;41.90;17.58;;;;;;;-0.61;80.05;99128.22;5110833;28;20449;-67
2020/12/04 00:39:45;;;;;;;38.77;16.67;;;;;;;-0.64;79.76;99117.03;5094120;28;20050;-67
2020/12/04 00:42:10;;;;;;;37.20;18.83;;;;;;;-0.64;79.75;99122.25;5112122;28;20372;-67
2020/12/04 00:44:35;;;;;;;43.43;19.07;;;;;;;-0.64;79.86;99106.53;5111966;28;20449;-67
2020/12/04 00:47:01;;;;;;;42.70;18.50;;;;;;;-0.61;79.85;99100.19;5111591;28;20039;-67
2020/12/04 00:49:28;;;;;;;38.38;17.27;;;;;;;-0.61;79.87;99108.06;5094035;28;20449;-67
2020/12/04 00:51:54;;;;;;;39.83;17.60;;;;;;;-0.62;79.46;99113.44;5094012;28;20084;-67
2020/12/04 00:54:20;;;;;;;35.35;15.73;;;;;;;-0.60;79.71;99101.03;5094048;28;20040;-67
2020/12/04 00:56:45;;;;;;;42.53;17.53;;;;;;;-0.59;79.79;99093.03;5111430;28;20061;-67
2020/12/04 00:59:23;;;;;;;41.65;18.10;;;;;;;-0.64;79.65;99097.84;5110875;28;20372;-67
2020/12/04 01:01:48;;;;;;;40.23;17.67;;;;;;;-0.62;79.84;99101.16;5111662;28;20139;-67
2020/12/04 01:04:14;;;;;;;34.27;16.87;;;;;;;-0.57;79.75;99098.97;5111755;28;20118;-67
2020/12/04 01:06:39;;;;;;;36.43;17.40;;;;;;;-0.60;79.50;99090.56;5111459;28;20111;-67
2020/12/04 01:09:05;;;;;;;36.03;16.17;;;;;;;-0.60;79.65;99098.44;5111708;28;20067;-67
2020/12/04 01:11:31;;;;;;;35.00;17.17;;;;;;;-0.63;79.81;99099.53;5111768;28;20042;-67
2020/12/04 01:13:57;;;;;;;34.72;15.52;;;;;;;-0.62;79.51;99098.56;5111666;28;20443;-67
2020/12/04 01:16:23;;;;;;;35.92;16.70;;;;;;;-0.66;78.79;99095.38;5111236;28;20035;-67
2020/12/04 01:18:48;;;;;;;36.40;16.97;;;;;;;-0.66;79.51;99089.28;5110477;28;20040;-67
2020/12/04 01:21:13;;;;;;;35.70;17.37;;;;;;;-0.67;79.05;99100.75;5111687;28;20039;-67
2020/12/04 01:23:39;;;;;;;33.60;15.65;;;;;;;-0.63;79.12;99086.41;5111579;28;20043;-67
2020/12/04 01:26:05;;;;;;;33.50;16.00;;;;;;;-0.70;79.03;99088.72;5093412;28;20039;-67
2020/12/04 01:28:31;;;;;;;36.33;15.63;;;;;;;-0.70;79.04;99085.28;5111505;28;20032;-67
2020/12/04 01:30:56;;;;;;;38.23;17.20;;;;;;;-0.75;79.28;99095.31;5079762;28;20583;-67
2020/12/04 01:33:21;;;;;;;30.23;15.67;;;;;;;-0.71;79.33;99092.28;5114750;28;20103;-67
2020/12/04 01:35:47;;;;;;;40.67;17.97;;;;;;;-0.76;78.96;99085.78;5115374;28;20031;-67
2020/12/04 01:38:12;;;;;;;32.80;15.07;;;;;;;-0.75;79.25;99080.44;5115455;28;20044;-67
2020/12/04 01:40:38;;;;;;;37.95;15.15;;;;;;;-0.68;79.01;99083.34;5114576;28;20089;-67
2020/12/04 01:43:03;;;;;;;35.10;14.70;;;;;;;-0.70;79.13;99085.28;5115549;28;20035;-67
2020/12/04 01:45:28;;;;;;;44.17;18.87;;;;;;;-0.77;79.41;99078.88;5115187;28;20437;-67
2020/12/04 01:47:55;;;;;;;36.50;15.83;;;;;;;-0.75;78.91;99082.19;5097300;28;20316;-67
2020/12/04 01:50:23;;;;;;;35.15;16.20;;;;;;;-0.80;78.89;99074.72;5115326;28;20598;-67
2020/12/04 01:52:49;;;;;;;37.75;16.83;;;;;;;-0.81;78.25;99082.75;5114327;28;20054;-67
2020/12/04 01:55:15;;;;;;;34.10;16.50;;;;;;;-0.84;78.86;99078.59;5097188;28;20472;-67
2020/12/04 01:57:46;;;;;;;39.03;15.88;;;;;;;-0.89;78.77;99078.13;5097121;28;20108;-67
2020/12/04 02:00:11;;;;;;;35.55;13.85;;;;;;;-0.91;78.55;99066.97;5115073;28;20100;-67
2020/12/04 02:02:43;;;;;;;29.65;14.25;;;;;;;-0.87;78.54;99069.22;5097591;28;20453;-67
2020/12/04 02:05:09;;;;;;;31.65;14.48;;;;;;;-0.89;78.44;99071.13;5115022;28;20039;-67
2020/12/04 02:07:40;;;;;;;31.08;14.70;;;;;;;-0.92;78.33;99068.75;5096783;28;20097;-67
2020/12/04 02:10:12;;;;;;;31.85;13.73;;;;;;;-0.93;78.72;99061.84;5114856;28;20035;-67
2020/12/04 02:12:38;;;;;;;34.70;14.27;;;;;;;-0.97;78.10;99057.84;5114834;28;20039;-67
2020/12/04 02:15:04;;;;;;;31.27;14.63;;;;;;;-0.99;78.61;99059.75;5114796;28;20038;-67
2020/12/04 02:17:32;;;;;;;33.78;14.27;;;;;;;-1.02;77.89;99054.78;5113577;28;20035;-67
2020/12/04 02:19:57;;;;;;;33.63;14.52;;;;;;;-0.98;77.57;99056.19;5096821;28;20043;-67
2020/12/04 02:22:23;;;;;;;34.60;15.05;;;;;;;-0.96;77.83;99043.78;5114819;28;20031;-67
2020/12/04 02:24:50;;;;;;;38.57;17.90;;;;;;;-1.02;77.33;99052.16;5096613;28;20385;-67
2020/12/04 02:27:15;;;;;;;32.75;15.18;;;;;;;-1.02;77.19;99053.97;5114321;28;20063;-67
2020/12/04 02:29:41;;;;;;;34.50;15.53;;;;;;;-1.01;77.59;99050.38;5096735;28;20478;-67
2020/12/04 02:32:13;;;;;;;32.72;14.93;;;;;;;-1.04;76.93;99046.22;5096686;28;20031;-67
2020/12/04 02:34:39;;;;;;;34.95;15.57;;;;;;;-1.07;77.65;99031.59;5114561;28;20446;-67
2020/12/04 02:37:06;;;;;;;31.48;16.13;;;;;;;-1.07;76.64;99034.22;5096267;28;20058;-67
2020/12/04 02:39:32;;;;;;;31.58;14.20;;;;;;;-1.10;77.28;99037.09;5114254;28;20039;-67
2020/12/04 02:41:57;;;;;;;32.63;15.30;;;;;;;-1.11;76.77;99030.19;5113504;28;20634;-67
2020/12/04 02:44:23;;;;;;;33.50;15.45;;;;;;;-1.16;76.50;99032.38;5096423;28;20031;-67
2020/12/04 02:46:48;;;;;;;32.90;14.80;;;;;;;-1.16;76.59;99035.00;5113907;28;20028;-67
2020/12/04 02:49:14;;;;;;;37.47;16.42;;;;;;;-1.17;76.75;99032.50;5096455;28;20335;-67
2020/12/04 02:51:44;;;;;;;33.92;15.68;;;;;;;-1.16;76.97;99026.31;5114137;28;20189;-67
2020/12/04 02:54:10;;;;;;;31.80;15.15;;;;;;;-1.24;77.26;99023.50;5096165;28;20049;-67
2020/12/04 02:56:36;;;;;;;31.83;14.70;;;;;;;-1.34;77.09;99008.56;5113803;28;20122;-67
2020/12/04 02:59:01;;;;;;;31.95;15.55;;;;;;;-1.25;77.12;99016.59;5114029;28;20032;-67
2020/12/04 03:01:26;;;;;;;35.80;15.43;;;;;;;-1.28;77.08;99009.84;5113916;28;20039;-67
2020/12/04 03:03:52;;;;;;;34.87;16.73;;;;;;;-1.31;76.76;99013.56;5096001;28;20047;-67
2020/12/04 03:06:17;;;;;;;32.93;15.23;;;;;;;-1.32;77.26;98998.78;5095910;28;20043;-67
2020/12/04 03:08:43;;;;;;;34.43;14.17;;;;;;;-1.32;76.68;99004.03;5112834;28;20042;-67
2020/12/04 03:11:09;;;;;;;44.95;16.17;;;;;;;-1.32;77.50;98990.09;5078924;28;20050;-67
2020/12/04 03:13:34;;;;;;;31.42;16.02;;;;;;;-1.31;77.28;98995.22;5113791;28;20031;-67
2020/12/04 03:16:00;;;;;;;36.33;16.53;;;;;;;-1.33;77.33;98999.75;5078437;28;20043;-67
2020/12/04 03:18:25;;;;;;;37.87;16.40;;;;;;;-1.30;76.81;98985.56;5113635;28;20070;-67
2020/12/04 03:20:50;;;;;;;37.73;16.87;;;;;;;-1.32;76.86;98988.31;5095526;28;20042;-67
2020/12/04 03:23:16;;;;;;;33.33;15.43;;;;;;;-1.29;77.24;98985.47;5113499;28;20031;-67
2020/12/04 03:25:41;;;;;;;36.83;17.90;;;;;;;-1.32;77.00;98969.97;5095304;28;20043;-67
2020/12/04 03:28:06;;;;;;;35.83;15.93;;;;;;;-1.29;77.26;98974.13;5095560;28;20055;-67
2020/12/04 03:30:32;;;;;;;38.40;16.33;;;;;;;-1.36;76.97;98968.59;5095609;28;20418;-67
2020/12/04 03:32:57;;;;;;;42.57;16.77;;;;;;;-1.35;77.00;98967.63;5113378;28;20633;-67
2020/12/04 03:35:22;;;;;;;28.77;15.13;;;;;;;-1.37;77.21;98974.78;5095438;28;20045;-67
2020/12/04 03:37:48;;;;;;;39.43;17.50;;;;;;;-1.40;76.77;98969.00;5112904;28;20035;-67
2020/12/04 03:40:13;;;;;;;39.33;18.17;;;;;;;-1.48;76.70;98946.06;5112196;28;20046;-67
2020/12/04 03:42:38;;;;;;;35.27;17.33;;;;;;;-1.44;77.18;98950.09;5095278;28;20358;-67
2020/12/04 03:45:04;;;;;;;38.77;18.53;;;;;;;-1.50;77.06;98951.44;5095072;28;20066;-67
2020/12/04 03:47:29;;;;;;;45.03;17.07;;;;;;;-1.51;77.04;98939.31;5112774;28;20077;-67
2020/12/04 03:49:54;;;;;;;42.27;17.70;;;;;;;-1.49;76.40;98929.53;5095135;28;20794;-67
2020/12/04 03:52:20;;;;;;;42.40;22.43;;;;;;;-1.53;76.71;98930.75;5112858;28;20372;-67
2020/12/04 03:54:47;;;;;;;43.00;18.75;;;;;;;-1.49;76.32;98926.09;5111912;28;20406;-67
2020/12/04 03:57:12;;;;;;;39.28;17.20;;;;;;;-1.51;76.44;98933.25;5112444;28;20478;-67
2020/12/04 03:59:38;;;;;;;36.20;16.73;;;;;;;-1.51;76.20;98928.00;5112928;28;20027;-67
2020/12/04 04:02:03;;;;;;;38.55;16.90;;;;;;;-1.51;76.32;98933.25;5112781;28;20043;-67
2020/12/04 04:04:29;;;;;;;48.73;19.83;;;;;;;-1.53;76.41;98927.31;5112811;28;20032;-67
2020/12/04 04:06:54;;;;;;;36.90;18.33;;;;;;;-1.56;76.62;98922.34;5112484;28;20118;-67
2020/12/04 04:09:19;;;;;;;39.13;18.40;;;;;;;-1.52;75.84;98926.38;5094802;28;20083;-67
2020/12/04 04:11:44;;;;;;;43.13;16.43;;;;;;;-1.53;75.95;98928.13;5112685;28;20051;-67
2020/12/04 04:14:10;;;;;;;39.57;14.70;;;;;;;-1.52;76.15;98921.97;5112559;28;20081;-67
2020/12/04 04:16:35;;;;;;;41.60;16.47;;;;;;;-1.50;75.78;98920.03;5111195;28;20067;-67
2020/12/04 04:19:00;;;;;;;35.00;18.53;;;;;;;-1.54;75.80;98917.81;5094560;28;20286;-67
2020/12/04 04:21:26;;;;;;;40.40;18.33;;;;;;;-1.50;76.12;98925.28;5094616;28;20070;-67
2020/12/04 04:23:51;;;;;;;44.73;19.23;;;;;;;-1.52;75.41;98928.97;5112338;28;20168;-67
2020/12/04 04:26:16;;;;;;;41.90;17.13;;;;;;;-1.53;76.02;98882.81;5112088;28;20039;-67
2020/12/04 04:28:42;;;;;;;39.70;16.88;;;;;;;-1.52;75.71;98900.19;5112337;28;20081;-67
2020/12/04 04:31:08;;;;;;;42.77;15.83;;;;;;;-1.52;76.19;98915.91;5111327;28;20039;-67
2020/12/04 04:33:33;;;;;;;37.28;15.35;;;;;;;-1.53;76.10;98916.84;5112334;28;20047;-67
2020/12/04 04:35:58;;;;;;;35.43;16.47;;;;;;;-1.53;75.77;98909.00;5111034;28;20512;-67
2020/12/04 04:38:24;;;;;;;35.50;15.70;;;;;;;-1.57;75.73;98908.44;5111985;28;20047;-67
2020/12/04 04:40:57;;;;;;;39.13;18.57;;;;;;;-1.54;76.08;98923.03;5112182;28;20036;-67
2020/12/04 04:43:24;;;;;;;36.20;17.52;;;;;;;-1.53;75.72;98904.56;5094224;28;20039;-67
2020/12/04 04:45:49;;;;;;;34.97;15.77;;;;;;;-1.54;76.04;98909.97;5093833;28;20437;-67
2020/12/04 04:48:21;;;;;;;39.83;17.67;;;;;;;-1.55;75.88;98916.97;5111992;28;20023;-67
2020/12/04 04:50:47;;;;;;;38.20;16.13;;;;;;;-1.58;75.96;98911.16;5111851;28;20027;-67
2020/12/04 04:53:15;;;;;;;40.10;16.98;;;;;;;-1.58;76.12;98906.75;5093989;28;20035;-67
2020/12/04 04:55:42;;;;;;;35.67;17.42;;;;;;;-1.59;75.95;98905.13;5111495;28;20038;-67
2020/12/04 04:58:07;;;;;;;37.78;15.95;;;;;;;-1.58;76.52;98906.75;5111813;28;20039;-67
2020/12/04 05:00:33;;;;;;;34.33;16.80;;;;;;;-1.61;76.00;98900.97;5111836;28;20035;-67
2020/12/04 05:02:59;;;;;;;34.80;15.57;;;;;;;-1.56;76.60;98898.78;5093960;28;20440;-67
2020/12/04 05:05:43;;;;;;;39.47;15.90;;;;;;;-1.61;76.67;98890.50;5093443;28;20036;-67
2020/12/04 05:08:10;;;;;;;43.85;18.33;;;;;;;-1.64;76.58;98890.75;5111776;28;20038;-67
2020/12/04 05:10:35;;;;;;;42.75;16.50;;;;;;;-1.61;76.56;98893.94;5093843;28;20069;-67
2020/12/04 05:13:01;;;;;;;36.60;16.97;;;;;;;-1.66;76.30;98879.56;5110731;28;20040;-67
2020/12/04 05:15:28;;;;;;;36.72;17.42;;;;;;;-1.68;76.45;98890.19;5111597;28;20036;-67
2020/12/04 05:18:05;;;;;;;42.53;18.40;;;;;;;-1.66;76.44;98890.91;5111317;28;20050;-67
2020/12/04 05:20:32;;;;;;;41.95;17.02;;;;;;;-1.68;76.18;98877.09;5093750;28;20032;-67
2020/12/04 05:23:01;;;;;;;37.78;17.33;;;;;;;-1.67;76.39;98875.31;5111528;28;20051;-67
2020/12/04 05:25:32;;;;;;;43.80;17.45;;;;;;;-1.70;76.11;98877.22;5076791;28;20800;-67
2020/12/04 05:28:09;;;;;;;40.00;18.50;;;;;;;-1.71;76.15;98859.88;5110377;28;20514;-67
2020/12/04 05:30:35;;;;;;;37.45;17.20;;;;;;;-1.70;76.25;98858.91;5110517;28;20035;-69
2020/12/04 05:33:06;;;;;;;42.97;19.75;;;;;;;-1.67;76.41;98859.63;5111572;28;20122;-67
2020/12/04 05:35:32;;;;;;;39.95;17.27;;;;;;;-1.65;76.56;98868.16;5093478;28;20054;-67
2020/12/04 05:38:13;;;;;;;51.58;20.27;;;;;;;-1.65;76.88;98869.00;5111156;28;20032;-67
2020/12/04 05:40:47;;;;;;;42.47;20.02;;;;;;;-1.63;76.42;98871.47;5111544;28;20375;-67
2020/12/04 05:43:13;;;;;;;43.65;16.80;;;;;;;-1.66;76.79;98880.44;5093471;28;20140;-67
2020/12/04 05:45:39;;;;;;;40.05;17.20;;;;;;;-1.67;76.22;98873.53;5110097;28;20036;-67
2020/12/04 05:48:15;;;;;;;40.72;18.73;;;;;;;-1.65;76.11;98876.03;5111322;28;20115;-67
2020/12/04 05:50:41;;;;;;;;;;;;;;;-1.65;76.51;98865.56;5112094;28;20043;-67
2020/12/04 05:53:09;;;;;;;45.35;18.67;;;;;;;-1.65;76.51;98876.03;5076775;28;19919;-67
2020/12/04 05:55:35;;;;;;;43.20;19.40;;;;;;;-1.67;76.12;98860.44;5109834;28;20027;-67
2020/12/04 05:58:02;;;;;;;42.42;20.38;;;;;;;-1.68;76.41;98848.31;5111286;28;20139;-67
2020/12/04 06:00:27;;;;;;;45.97;17.98;;;;;;;-1.70;76.85;98855.47;5093245;28;20176;-67
2020/12/04 06:03:01;;;;;;;49.77;19.33;;;;;;;-1.66;76.68;98862.13;5111268;28;20114;-67
2020/12/04 06:05:27;;;;;;;46.40;17.63;;;;;;;-1.64;77.17;98867.19;5111000;28;20426;-67
2020/12/04 06:07:59;;;;;;;48.65;20.05;;;;;;;-1.68;76.84;98858.78;5110976;28;20044;-67
2020/12/04 06:10:24;;;;;;;45.45;19.30;;;;;;;-1.67;76.87;98867.47;5111177;28;20031;-67
2020/12/04 06:12:51;;;;;;;47.50;21.50;;;;;;;-1.70;76.56;98858.91;5093447;28;20368;-67
2020/12/04 06:15:20;;;;;;;40.50;17.17;;;;;;;-1.68;76.85;98852.75;5111122;28;20151;-67
2020/12/04 06:17:46;;;;;;;51.10;22.00;;;;;;;-1.72;76.62;98852.97;5113433;28;20028;-67
2020/12/04 06:20:20;;;;;;;41.27;18.43;;;;;;;-1.75;76.65;98837.56;5114842;28;20126;-67
2020/12/04 06:23:10;;;;;;;41.05;16.90;;;;;;;-1.72;76.93;98846.94;5114699;28;20277;-67
2020/12/04 06:25:52;;;;;;;46.88;18.02;;;;;;;-1.71;76.81;98852.03;5096385;28;20077;-69
2020/12/04 06:28:18;;;;;;;49.00;21.58;;;;;;;-1.68;76.84;98844.88;5114635;28;20036;-67
2020/12/04 06:31:11;;;;;;;49.45;20.55;;;;;;;-0.93;80.24;98839.16;5114436;28;20031;-67
2020/12/04 06:33:45;;;;;;;43.70;18.70;;;;;;;-0.94;78.22;98840.13;5086093;28;20457;-67
2020/12/04 06:36:31;;;;;;;43.45;20.42;;;;;;;-1.49;75.95;98837.09;5113322;28;20035;-67
2020/12/04 06:38:57;;;;;;;41.75;19.30;;;;;;;-1.56;76.51;98838.59;5065529;28;20200;-67
2020/12/04 06:41:23;;;;;;;;;;;;;;;-1.58;76.46;98853.59;5096778;28;20051;-67
2020/12/04 06:43:54;;;;;;;43.45;17.92;;;;;;;-1.58;76.34;98864.06;5096406;28;19911;-67
2020/12/04 06:46:27;;;;;;;48.08;20.98;;;;;;;-1.53;75.91;98847.00;5096030;28;20039;-67
2020/12/04 06:49:10;;;;;;;49.22;18.75;;;;;;;-1.57;76.43;98855.25;5114276;28;20326;-67
2020/12/04 06:51:40;;;;;;;53.05;21.67;;;;;;;-1.56;76.35;98855.13;5114128;28;20036;-67
2020/12/04 06:54:06;;;;;;;46.88;20.42;;;;;;;-1.56;76.11;98851.69;5096269;28;20043;-67
2020/12/04 06:56:32;;;;;;;45.33;20.67;;;;;;;-1.55;75.96;98864.63;5113630;28;20642;-67
2020/12/04 06:58:58;;;;;;;51.25;20.38;;;;;;;-1.49;76.11;98858.03;5114050;28;20035;-67
2020/12/04 07:01:23;;;;;;;43.95;19.92;;;;;;;-1.44;75.49;98849.78;5113986;28;20132;-67
2020/12/04 07:03:53;;;;;;;42.88;19.90;;;;;;;-1.39;75.62;98845.81;5096031;28;20043;-67
2020/12/04 07:06:23;;;;;;;46.33;19.10;;;;;;;-1.42;75.46;98850.50;5113508;28;20486;-67
2020/12/04 07:08:54;;;;;;;49.22;20.92;;;;;;;-1.47;75.51;98860.53;5113962;28;20027;-67
2020/12/04 07:11:20;;;;;;;48.05;22.60;;;;;;;-1.47;75.23;98844.84;5095880;28;20465;-67
2020/12/04 07:13:45;;;;;;;47.87;20.27;;;;;;;-1.42;75.43;98853.94;5113881;28;20038;-66
2020/12/04 07:16:11;;;;;;;47.13;20.80;;;;;;;-1.42;75.42;98848.69;5078675;28;20028;-67
2020/12/04 07:18:37;;;;;;;45.55;17.92;;;;;;;-1.37;75.87;98846.50;5112760;28;20050;-67
2020/12/04 07:21:03;;;;;;;44.05;20.40;;;;;;;-1.34;75.75;98856.72;5095741;28;20077;-67
2020/12/04 07:23:28;;;;;;;43.13;20.10;;;;;;;-1.32;75.35;98859.19;5095745;28;20074;-67
2020/12/04 07:25:54;;;;;;;46.33;18.85;;;;;;;-1.34;74.81;98867.19;5113191;28;20039;-67
2020/12/04 07:28:19;;;;;;;40.73;19.47;;;;;;;-1.33;74.85;98853.13;5095140;28;20032;-67
2020/12/04 07:30:45;;;;;;;46.55;19.25;;;;;;;-1.28;75.11;98856.19;5113401;28;20039;-67
2020/12/04 07:33:12;;;;;;;47.47;19.87;;;;;;;-1.29;74.88;98853.69;5112417;28;20053;-67
2020/12/04 07:35:38;;;;;;;45.15;20.70;;;;;;;-1.28;74.55;98866.66;5112725;28;20047;-67
2020/12/04 07:38:08;;;;;;;48.17;20.37;;;;;;;-1.20;74.46;98870.41;5113109;28;20036;-67
2020/12/04 07:40:34;;;;;;;41.67;20.35;;;;;;;-1.21;74.15;98866.13;5095203;28;20050;-67
2020/12/04 07:42:59;;;;;;;39.93;17.10;;;;;;;-1.18;74.27;98868.47;5112348;28;20036;-67
2020/12/04 07:45:25;;;;;;;;;;;;;;;-1.21;74.29;98866.97;5094826;28;20027;-67
2020/12/04 07:47:51;;;;;;;62.22;18.38;;;;;;;-1.17;74.17;98864.88;5112602;28;19919;-67
2020/12/04 07:50:16;;;;;;;45.13;19.03;;;;;;;-1.16;74.19;98875.25;5113092;28;20071;-67
2020/12/04 07:52:51;;;;;;;44.28;19.90;;;;;;;-1.09;74.62;98881.59;5113082;28;20043;-67
2020/12/04 07:55:22;;;;;;;46.53;19.80;;;;;;;-1.07;73.75;98876.22;5094941;28;20035;-67
2020/12/04 07:58:00;;;;;;;49.72;18.85;;;;;;;-1.06;73.79;98893.59;5094622;28;20035;-67
2020/12/04 08:00:33;;;;;;;45.08;19.63;;;;;;;-1.03;73.89;98885.50;5111746;28;20063;-67
2020/12/04 08:03:11;;;;;;;45.22;19.23;;;;;;;-1.04;73.83;98889.06;5112750;28;20036;-67
2020/12/04 08:05:36;;;;;;;46.65;19.20;;;;;;;-1.04;73.74;98893.47;5094413;28;20027;-67
2020/12/04 08:08:03;;;;;;;41.13;18.85;;;;;;;-1.02;73.95;98884.50;5111792;28;20063;-67
2020/12/04 08:10:29;;;;;;;41.67;18.55;;;;;;;-0.96;74.05;98891.84;5077834;28;20040;-67
2020/12/04 08:12:57;;;;;;;46.97;19.90;;;;;;;-1.00;73.92;98879.16;5111543;28;20043;-67
2020/12/04 08:15:22;;;;;;;48.97;19.33;;;;;;;-1.03;74.09;98876.78;5094637;28;20036;-67
2020/12/04 08:17:59;;;;;;;44.70;19.25;;;;;;;-0.95;74.44;98880.38;5112274;28;20506;-67
2020/12/04 08:20:24;;;;;;;40.47;18.63;;;;;;;-0.96;74.46;98884.00;5112590;28;20032;-67
2020/12/04 08:22:50;;;;;;;40.97;17.20;;;;;;;-0.94;73.78;98889.06;5077685;28;20040;-67
2020/12/04 08:25:23;;;;;;;44.33;19.38;;;;;;;-0.94;73.61;98895.13;5112430;28;20031;-67
2020/12/04 08:27:49;;;;;;;41.75;18.83;;;;;;;-0.94;73.70;98891.69;5094283;28;20027;-67
2020/12/04 08:30:20;;;;;;;40.80;17.07;;;;;;;-0.96;73.92;98889.22;5094517;28;20417;-67
2020/12/04 08:32:54;;;;;;;42.42;19.50;;;;;;;-0.86;73.72;98892.69;5111369;28;20036;-67
2020/12/04 08:35:23;;;;;;;43.60;18.35;;;;;;;-0.81;73.48;98886.22;5112142;28;20035;-67
2020/12/04 08:37:50;;;;;;;42.97;19.40;;;;;;;-0.92;73.56;98885.34;5111695;28;20111;-67
2020/12/04 08:40:27;;;;;;;43.13;18.35;;;;;;;-0.91;73.73;98879.16;5093525;28;20043;-67
2020/12/04 08:42:53;;;;;;;43.75;19.35;;;;;;;-0.81;73.89;98894.06;5112086;28;20100;-67
2020/12/04 08:45:28;;;;;;;46.13;21.02;;;;;;;-0.88;73.70;98889.38;5111132;28;20421;-67
2020/12/04 08:47:54;;;;;;;44.33;19.02;;;;;;;-0.86;74.22;98884.81;5111886;28;20023;-67
2020/12/04 08:50:22;;;;;;;48.53;20.30;;;;;;;-0.91;74.32;98879.16;5094181;28;20063;-67
2020/12/04 08:52:53;;;;;;;40.05;16.73;;;;;;;-0.87;74.66;98872.69;5111850;28;20115;-67
2020/12/04 08:55:26;;;;;;;44.97;19.67;;;;;;;-0.91;75.18;98879.16;5093843;28;20031;-67
2020/12/04 08:57:55;;;;;;;43.00;19.95;;;;;;;-0.85;75.34;98888.25;5093745;28;20054;-67
2020/12/04 09:00:28;;;;;;;44.60;19.23;;;;;;;-0.87;75.42;98880.56;5111978;28;20062;-67
2020/12/04 09:02:54;;;;;;;47.33;19.17;;;;;;;-0.85;75.36;98886.47;5110644;28;20063;-67
2020/12/04 09:05:19;;;;;;;42.08;19.73;;;;;;;-0.88;75.02;98897.22;5111795;28;20478;-67
2020/12/04 09:07:45;;;;;;;45.10;20.85;;;;;;;-0.83;75.91;98886.34;5076686;28;20039;-67
2020/12/04 09:10:16;;;;;;;43.78;19.42;;;;;;;-0.83;74.82;98888.13;5093925;28;20118;-67
2020/12/04 09:12:43;;;;;;;43.58;17.77;;;;;;;-0.78;75.40;98888.56;5111520;28;20500;-67
2020/12/04 09:15:14;;;;;;;46.13;19.35;;;;;;;-0.85;74.68;98889.09;5110794;28;20067;-67
2020/12/04 09:17:39;;;;;;;47.30;19.50;;;;;;;-0.84;74.85;98889.94;5111156;28;20169;-67
2020/12/04 09:20:07;;;;;;;41.10;17.23;;;;;;;-0.86;75.52;98890.06;5076829;28;20134;-67
2020/12/04 09:22:33;;;;;;;41.35;18.10;;;;;;;-0.78;75.92;98894.63;5075369;28;20327;-67
2020/12/04 09:25:05;;;;;;;41.25;19.38;;;;;;;-0.73;76.51;98894.22;5076972;28;20176;-67
2020/12/04 09:27:30;;;;;;;46.83;20.20;;;;;;;-0.81;75.80;98900.16;5111176;28;20043;-67
2020/12/04 09:29:56;;;;;;;46.23;19.87;;;;;;;-0.75;75.48;98910.09;5110582;28;20047;-67
2020/12/04 09:32:22;;;;;;;45.15;19.40;;;;;;;-0.73;75.93;98912.56;5111419;28;20070;-67
2020/12/04 09:34:48;;;;;;;46.95;20.13;;;;;;;-0.69;75.88;98914.78;5111521;28;20039;-67
2020/12/04 09:37:16;;;;;;;;;;;;;;;-0.73;75.53;98904.69;5093542;28;20039;-67
2020/12/04 09:39:45;;;;;;;48.55;20.52;;;;;;;-0.67;75.35;98914.66;5076560;28;20280;-67
2020/12/04 09:42:13;;;;;;;45.00;19.27;;;;;;;-0.69;75.49;98919.19;5111472;28;20042;-67
2020/12/04 09:44:39;;;;;;;49.95;20.60;;;;;;;-0.65;75.13;98918.78;5111311;28;20100;-67
2020/12/04 09:47:04;;;;;;;43.85;20.48;;;;;;;-0.68;74.58;98931.31;5111216;28;20122;-67
2020/12/04 09:49:29;;;;;;;43.07;19.20;;;;;;;-0.63;75.38;98934.38;5111357;28;20370;-67
2020/12/04 09:51:57;;;;;;;43.70;18.33;;;;;;;-0.67;74.96;98922.50;5096396;28;20039;-67
2020/12/04 09:54:24;;;;;;;38.38;18.02;;;;;;;-0.62;75.87;98927.34;5115269;28;20066;-67
2020/12/04 09:56:54;;;;;;;50.20;18.23;;;;;;;-0.62;74.73;98925.56;5097147;28;20346;-67
2020/12/04 09:59:21;;;;;;;44.60;20.58;;;;;;;-0.67;74.99;98925.97;5097092;28;20444;-67
2020/12/04 10:01:51;;;;;;;43.63;19.70;;;;;;;-0.63;75.10;98913.41;5097350;28;20196;-67
2020/12/04 10:04:18;;;;;;;44.75;20.45;;;;;;;-0.62;75.07;98920.31;5115099;28;20032;-67
2020/12/04 10:06:43;;;;;;;41.20;19.52;;;;;;;-0.59;75.04;98920.03;5096376;28;20039;-67
2020/12/04 10:09:09;;;;;;;46.08;20.23;;;;;;;-0.54;74.77;98915.22;5113818;28;20114;-67
2020/12/04 10:11:34;;;;;;;40.10;19.47;;;;;;;-0.46;75.35;98914.53;5097044;28;20067;-67
2020/12/04 10:13:59;;;;;;;51.10;20.63;;;;;;;-0.54;74.90;98912.59;5114858;28;20047;-67
2020/12/04 10:16:25;;;;;;;38.67;17.23;;;;;;;-0.59;74.65;98909.53;5114542;28;20092;-67
2020/12/04 10:18:50;;;;;;;41.93;19.47;;;;;;;-0.48;75.50;98909.41;5114749;28;20058;-67
2020/12/04 10:21:16;;;;;;;43.83;18.73;;;;;;;-0.48;75.02;98906.81;5114849;28;20088;-67
2020/12/04 10:23:41;;;;;;;45.28;21.17;;;;;;;-0.52;75.10;98892.31;5096795;28;20426;-67
2020/12/04 10:26:06;;;;;;;45.50;19.87;;;;;;;-0.44;75.20;98896.88;5096579;28;20446;-67
2020/12/04 10:28:32;;;;;;;43.60;19.07;;;;;;;-0.50;75.25;98903.47;5113584;28;20039;-67
2020/12/04 10:30:59;;;;;;;42.90;20.65;;;;;;;-0.46;75.04;98893.56;5096467;28;20106;-68
2020/12/04 10:33:24;;;;;;;;;;;;;;;-0.49;75.35;98893.84;5115046;28;20453;-67
2020/12/04 10:35:49;;;;;;;;;;;;;;;-0.40;75.25;98892.16;5114438;28;20006;-68
2020/12/04 10:38:15;;;;;;;45.20;19.27;;;;;;;-0.49;75.56;98883.38;5096451;28;19916;-67
2020/12/04 10:40:40;;;;;;;44.33;20.00;;;;;;;-0.44;75.99;98886.41;5096389;28;20043;-67
2020/12/04 10:43:05;;;;;;;54.63;20.93;;;;;;;-0.46;76.07;98894.38;5096236;28;20036;-67
2020/12/04 10:45:31;;;;;;;44.63;20.20;;;;;;;-0.45;75.87;98895.22;5114113;28;20035;-67
2020/12/04 10:47:56;;;;;;;51.80;21.57;;;;;;;-0.48;75.80;98896.31;5114132;28;20042;-68
2020/12/04 10:50:21;;;;;;;41.80;19.57;;;;;;;-0.48;76.31;98885.00;5096353;28;20688;-67
2020/12/04 10:52:46;;;;;;;45.70;19.93;;;;;;;-0.46;76.35;98888.31;5096353;28;20426;-68
2020/12/04 10:55:12;;;;;;;50.63;21.93;;;;;;;-0.41;76.78;98882.66;5111817;28;20039;-68
2020/12/04 10:57:37;;;;;;;49.33;19.03;;;;;;;-0.41;76.44;98872.19;5111957;28;20039;-68
2020/12/04 11:00:04;;;;;;;50.27;19.27;;;;;;;-0.44;76.50;98878.53;5112260;28;20092;-68
2020/12/04 11:02:31;;;;;;;44.63;18.73;;;;;;;-0.33;76.54;98878.41;5111832;28;20050;-68
2020/12/04 11:07:41;;;;;;;45.45;21.00;;;;;;;-0.43;76.88;98873.13;5113566;28;20039;-68
2020/12/04 11:10:06;;;;;;;44.90;21.70;;;;;;;-0.47;76.91;98881.41;5113720;28;20036;-68
2020/12/04 11:12:31;;;;;;;48.90;21.87;;;;;;;-0.37;76.97;98865.69;5112817;28;20043;-68
2020/12/04 11:14:57;;;;;;;46.03;21.17;;;;;;;-0.53;77.18;98882.78;5078951;28;20043;-68
2020/12/04 11:17:22;;;;;;;43.17;20.03;;;;;;;-0.50;77.48;98882.50;5113249;28;20038;-68
2020/12/04 11:19:48;;;;;;;46.28;20.77;;;;;;;-0.39;77.59;98880.75;5112758;28;20036;-68
2020/12/04 11:22:14;;;;;;;39.28;18.70;;;;;;;-0.38;77.63;98892.88;5113538;28;20114;-68